createdAt,value
2023-04-16T00:01:07.032Z,94820.42
2023-04-16T00:03:35.965Z,94813.20
2023-04-16T00:06:05.087Z,94809.17
2023-04-16T00:08:35.292Z,94812.41
2023-04-16T00:11:03.918Z,94806.67
2023-04-16T00:13:32.490Z,94810.46
2023-04-16T00:16:01.235Z,94811.41
2023-04-16T00:18:30.381Z,94804.55
2023-04-16T00:20:59.724Z,94803.77
2023-04-16T00:23:28.387Z,94804.08
2023-04-16T00:25:58.811Z,94801.36
2023-04-16T00:28:28.088Z,94803.80
2023-04-16T00:30:57.243Z,94807.80
2023-04-16T00:33:26.045Z,94808.91
2023-04-16T00:35:54.778Z,94805.60
2023-04-16T00:38:23.463Z,94806.59
2023-04-16T00:40:52.175Z,94805.41
2023-04-16T00:43:25.450Z,94798.56
2023-04-16T00:45:56.257Z,94801.06
2023-04-16T00:48:29.976Z,94802.44
2023-04-16T00:50:58.616Z,94797.88
2023-04-16T00:53:27.644Z,94799.89
2023-04-16T00:55:57.882Z,94801.78
2023-04-16T00:58:27.429Z,94803.11
2023-04-16T01:00:56.834Z,94801.31
2023-04-16T01:03:27.884Z,94802.08
2023-04-16T01:05:57.901Z,94795.03
2023-04-16T01:08:28.322Z,94801.52
2023-04-16T01:10:56.906Z,94798.98
2023-04-16T01:13:25.652Z,94795.52
2023-04-16T01:15:54.347Z,94797.61
2023-04-16T01:18:25.763Z,94797.80
2023-04-16T01:20:54.415Z,94797.69
2023-04-16T01:23:23.145Z,94798.45
2023-04-16T01:25:51.776Z,94793.69
2023-04-16T01:28:20.400Z,94793.73
2023-04-16T01:30:49.377Z,94792.08
2023-04-16T01:33:19.054Z,94795.08
2023-04-16T01:35:47.656Z,94795.20
2023-04-16T01:38:16.561Z,94790.59
2023-04-16T01:40:46.711Z,94788.13
2023-04-16T01:43:15.710Z,94789.54
2023-04-16T01:45:44.526Z,94785.10
2023-04-16T01:48:13.381Z,94781.50
2023-04-16T01:50:42.462Z,94780.72
2023-04-16T01:53:11.211Z,94774.00
2023-04-16T01:55:40.046Z,94777.44
2023-04-16T01:58:13.057Z,94775.77
2023-04-16T02:00:41.983Z,94774.77
2023-04-16T02:03:11.708Z,94772.05
2023-04-16T02:05:40.494Z,94774.77
2023-04-16T02:08:09.228Z,94774.64
2023-04-16T02:10:37.951Z,94772.78
2023-04-16T02:13:09.971Z,94775.44
2023-04-16T02:15:44.812Z,94773.78
2023-04-16T02:18:10.780Z,94772.27
2023-04-16T02:20:43.988Z,94778.20
2023-04-16T02:23:14.798Z,94775.78
2023-04-16T02:25:45.278Z,94771.27
2023-04-16T02:28:16.798Z,94766.66
2023-04-16T02:30:45.892Z,94768.09
2023-04-16T02:33:14.848Z,94767.66
2023-04-16T02:35:43.730Z,94770.94
2023-04-16T02:38:12.525Z,94769.28
2023-04-16T02:40:41.420Z,94766.70
2023-04-16T02:43:10.374Z,94765.75
2023-04-16T02:45:39.082Z,94769.65
2023-04-16T02:48:09.212Z,94770.30
2023-04-16T02:50:39.661Z,94764.81
2023-04-16T02:53:08.408Z,94760.75
2023-04-16T02:55:37.276Z,94761.47
2023-04-16T02:58:06.003Z,94759.52
2023-04-16T03:00:34.883Z,94753.20
2023-04-16T03:03:05.211Z,94755.24
2023-04-16T03:05:33.779Z,94755.73
2023-04-16T03:08:11.731Z,94751.69
2023-04-16T03:10:41.691Z,94751.69
2023-04-16T03:13:10.329Z,94756.44
2023-04-16T03:15:39.129Z,94759.48
2023-04-16T03:18:07.860Z,94763.91
2023-04-16T03:20:38.355Z,94761.75
2023-04-16T03:23:07.248Z,94766.94
2023-04-16T03:25:36.721Z,94772.83
2023-04-16T03:28:05.664Z,94770.78
2023-04-16T03:30:34.355Z,94772.30
2023-04-16T03:33:03.161Z,94765.61
2023-04-16T03:35:32.520Z,94765.73
2023-04-16T03:38:04.086Z,94766.11
2023-04-16T03:40:32.879Z,94772.38
2023-04-16T03:43:02.922Z,94772.16
2023-04-16T03:45:31.595Z,94775.35
2023-04-16T03:48:00.575Z,94778.92
2023-04-16T03:50:29.394Z,94774.84
2023-04-16T03:52:58.268Z,94777.44
2023-04-16T03:55:26.944Z,94779.27
2023-04-16T03:57:56.120Z,94777.00
2023-04-16T04:00:24.892Z,94776.41
2023-04-16T04:02:55.098Z,94781.57
2023-04-16T04:05:24.091Z,94781.38
2023-04-16T04:07:55.082Z,94780.72
2023-04-16T04:10:23.866Z,94784.58
2023-04-16T04:12:52.573Z,94782.04
2023-04-16T04:15:21.284Z,94789.69
2023-04-16T04:17:50.002Z,94793.94
2023-04-16T04:20:18.858Z,94796.17
2023-04-16T04:22:47.686Z,94794.56
2023-04-16T04:25:17.960Z,94800.69
2023-04-16T04:27:46.643Z,94797.31
2023-04-16T04:30:15.289Z,94800.53
2023-04-16T04:32:44.375Z,94805.22
2023-04-16T04:35:13.082Z,94810.02
2023-04-16T04:37:43.389Z,94817.22
2023-04-16T04:40:17.230Z,94808.48
2023-04-16T04:42:46.055Z,94810.40
2023-04-16T04:45:14.905Z,94814.77
2023-04-16T04:47:45.426Z,94818.58
2023-04-16T04:50:14.085Z,94820.63
2023-04-16T04:52:42.751Z,94820.86
2023-04-16T04:55:11.516Z,94815.80
2023-04-16T04:57:40.385Z,94817.78
2023-04-16T05:00:11.056Z,94816.45
2023-04-16T05:02:40.037Z,94819.72
2023-04-16T05:05:12.284Z,94820.02
2023-04-16T05:07:41.108Z,94826.67
2023-04-16T05:10:10.616Z,94825.84
2023-04-16T05:12:40.248Z,94824.72
2023-04-16T05:15:09.872Z,94823.72
2023-04-16T05:17:38.549Z,94821.22
2023-04-16T05:20:08.574Z,94817.86
2023-04-16T05:22:37.409Z,94816.58
2023-04-16T05:25:06.480Z,94822.44
2023-04-16T05:27:35.221Z,94817.29
2023-04-16T05:30:04.276Z,94827.44
2023-04-16T05:32:33.131Z,94821.02
2023-04-16T05:35:03.531Z,94817.44
2023-04-16T05:37:32.318Z,94817.63
2023-04-16T05:40:01.010Z,94812.66
2023-04-16T05:42:29.783Z,94821.43
2023-04-16T05:45:02.806Z,94813.21
2023-04-16T05:47:31.448Z,94811.29
2023-04-16T05:50:00.313Z,94810.89
2023-04-16T05:52:29.138Z,94817.02
2023-04-16T05:54:59.454Z,94813.02
2023-04-16T05:57:29.829Z,94808.45
2023-04-16T05:59:58.562Z,94814.38
2023-04-16T06:02:27.668Z,94822.59
2023-04-16T06:04:59.225Z,94822.02
2023-04-16T06:07:27.968Z,94820.29
2023-04-16T06:09:56.585Z,94816.48
2023-04-16T06:12:25.453Z,94822.56
2023-04-16T06:14:55.955Z,94813.56
2023-04-16T06:17:24.676Z,94813.26
2023-04-16T06:19:54.933Z,94812.34
2023-04-16T06:22:23.780Z,94814.47
2023-04-16T06:24:52.567Z,94813.48
2023-04-16T06:27:21.432Z,94815.77
2023-04-16T06:29:50.624Z,94807.55
2023-04-16T06:32:22.002Z,94807.06
2023-04-16T06:34:52.335Z,94806.61
2023-04-16T06:37:21.141Z,94808.00
2023-04-16T06:39:50.052Z,94811.38
2023-04-16T06:42:19.478Z,94807.67
2023-04-16T06:44:48.486Z,94802.77
2023-04-16T06:47:20.331Z,94802.66
2023-04-16T06:49:49.091Z,94803.71
2023-04-16T06:52:17.996Z,94804.62
2023-04-16T06:54:46.829Z,94814.04
2023-04-16T06:57:16.395Z,94811.25
2023-04-16T06:59:45.089Z,94805.33
2023-04-16T07:02:13.827Z,94810.63
2023-04-16T07:04:42.551Z,94808.95
2023-04-16T07:07:11.294Z,94801.14
2023-04-16T07:09:40.288Z,94801.64
2023-04-16T07:12:09.242Z,94800.83
2023-04-16T07:14:38.084Z,94802.84
2023-04-16T07:17:06.824Z,94804.86
2023-04-16T07:19:37.102Z,94808.34
2023-04-16T07:22:06.393Z,94812.88
2023-04-16T07:24:36.026Z,94810.84
2023-04-16T07:27:04.897Z,94815.31
2023-04-16T07:29:33.629Z,94809.38
2023-04-16T07:32:02.428Z,94804.50
2023-04-16T07:34:33.092Z,94744.72
2023-04-16T07:37:02.438Z,94804.30
2023-04-16T07:39:31.744Z,94804.89
2023-04-16T07:42:05.207Z,94800.31
2023-04-16T07:44:34.231Z,94796.66
2023-04-16T07:47:05.235Z,94801.73
2023-04-16T07:49:36.075Z,94801.56
2023-04-16T07:52:04.830Z,94801.06
2023-04-16T07:54:33.551Z,94799.82
2023-04-16T07:57:03.136Z,94798.29
2023-04-16T07:59:31.876Z,94799.71
2023-04-16T08:02:00.809Z,94798.00
2023-04-16T08:04:30.060Z,94797.95
2023-04-16T08:06:59.112Z,94805.19
2023-04-16T08:09:29.005Z,94798.00
2023-04-16T08:11:57.778Z,94798.55
2023-04-16T08:14:26.397Z,94794.14
2023-04-16T08:16:55.248Z,94795.84
2023-04-16T08:19:26.844Z,94785.18
2023-04-16T08:21:55.819Z,94787.01
2023-04-16T08:24:24.645Z,94774.75
2023-04-16T08:26:53.573Z,94787.87
2023-04-16T08:29:24.136Z,94785.20
2023-04-16T08:32:20.825Z,94780.29
2023-04-16T08:34:28.471Z,94776.84
2023-04-16T08:37:02.683Z,94776.66
2023-04-16T08:39:31.998Z,94771.11
2023-04-16T08:42:02.731Z,94763.50
2023-04-16T08:44:34.541Z,94752.59
2023-04-16T08:47:06.501Z,94765.43
2023-04-16T08:49:40.434Z,94764.66
2023-04-16T08:52:24.893Z,94764.30
2023-04-16T08:55:02.696Z,94762.48
2023-04-16T08:57:39.151Z,94761.98
2023-04-16T09:05:40.918Z,94755.98
2023-04-16T09:08:20.569Z,94754.01
2023-04-16T09:10:50.591Z,94753.12
2023-04-16T09:13:24.521Z,94745.23
2023-04-16T09:15:59.305Z,94745.90
2023-04-16T09:18:31.795Z,94746.47
2023-04-16T09:21:01.317Z,94748.55
2023-04-16T09:23:30.648Z,94743.86
2023-04-16T09:26:04.304Z,94743.34
2023-04-16T09:28:51.514Z,94741.74
2023-04-16T09:31:21.060Z,94739.84
2023-04-16T09:34:05.987Z,94744.10
2023-04-16T09:36:39.260Z,94742.08
2023-04-16T09:39:08.136Z,94746.44
2023-04-16T09:41:40.221Z,94740.92
2023-04-16T09:44:11.341Z,94741.23
2023-04-16T09:46:54.415Z,94743.20
2023-04-16T09:49:24.685Z,94739.44
2023-04-16T09:51:57.253Z,94733.27
2023-04-16T09:54:27.943Z,94731.50
2023-04-16T09:57:01.537Z,94724.34
2023-04-16T09:59:36.680Z,94724.25
2023-04-16T10:02:14.674Z,94726.89
2023-04-16T10:04:54.830Z,94720.14
2023-04-16T10:07:43.370Z,94716.31
2023-04-16T10:10:29.580Z,94715.66
2023-04-16T10:12:54.025Z,94714.33
2023-04-16T10:16:45.179Z,94708.31
2023-04-16T10:18:06.156Z,94714.67
2023-04-16T10:20:38.704Z,94705.11
2023-04-16T10:23:22.128Z,94705.59
2023-04-16T10:29:01.919Z,94694.38
2023-04-16T10:31:41.500Z,94693.33
2023-04-16T10:34:11.593Z,94692.84
2023-04-16T10:36:42.591Z,94696.05
2023-04-16T10:39:38.472Z,94689.17
2023-04-16T10:42:22.942Z,94682.94
2023-04-16T10:47:48.605Z,94688.80
2023-04-16T10:50:23.872Z,94686.16
2023-04-16T10:52:58.705Z,94688.45
2023-04-16T10:58:43.247Z,94680.34
2023-04-16T11:01:18.404Z,94675.61
2023-04-16T11:03:50.360Z,94676.98
2023-04-16T11:06:31.080Z,94669.48
2023-04-16T11:09:06.006Z,94667.75
2023-04-16T11:11:49.624Z,94664.12
2023-04-16T11:15:06.444Z,94665.91
2023-04-16T11:17:46.027Z,94662.59
2023-04-16T11:20:23.767Z,94656.27
2023-04-16T11:22:58.236Z,94652.89
2023-04-16T11:25:34.644Z,94650.52
2023-04-16T11:28:07.258Z,94644.06
2023-04-16T11:30:55.676Z,94639.25
2023-04-16T11:33:36.679Z,94639.25
2023-04-16T11:36:16.594Z,94619.43
2023-04-16T11:38:54.801Z,94640.77
2023-04-16T11:41:25.790Z,94637.52
2023-04-16T11:44:06.489Z,94634.00
2023-04-16T11:46:59.372Z,94627.52
2023-04-16T11:49:33.801Z,94621.80
2023-04-16T11:52:12.224Z,94617.73
2023-04-16T11:54:44.097Z,94619.66
2023-04-16T11:57:29.332Z,94620.39
2023-04-16T12:00:06.361Z,94614.05
2023-04-16T12:02:44.690Z,94612.37
2023-04-16T12:05:35.028Z,94602.42
2023-04-16T12:08:06.434Z,94595.10
2023-04-16T12:10:38.333Z,94596.56
2023-04-16T12:13:18.080Z,94579.48
2023-04-16T12:15:54.260Z,94586.38
2023-04-16T12:18:27.326Z,94583.88
2023-04-16T12:20:56.252Z,94574.30
2023-04-16T12:23:34.286Z,94572.44
2023-04-16T12:26:12.244Z,94570.96
2023-04-16T12:28:41.823Z,94572.48
2023-04-16T12:31:11.268Z,94575.03
2023-04-16T12:33:40.073Z,94571.98
2023-04-16T12:36:22.043Z,94571.39
2023-04-16T12:38:50.811Z,94563.57
2023-04-16T12:41:19.915Z,94560.45
2023-04-16T12:43:48.679Z,94559.09
2023-04-16T12:46:17.293Z,94557.89
2023-04-16T12:48:45.979Z,94556.05
2023-04-16T12:51:14.627Z,94556.81
2023-04-16T12:53:43.325Z,94555.73
2023-04-16T12:56:11.949Z,94556.98
2023-04-16T12:58:40.596Z,94558.41
2023-04-16T13:01:09.388Z,94555.55
2023-04-16T13:03:38.670Z,94551.87
2023-04-16T13:06:09.493Z,94548.08
2023-04-16T13:08:42.389Z,94541.33
2023-04-16T13:11:12.038Z,94541.55
2023-04-16T13:13:41.237Z,94533.66
2023-04-16T13:16:12.940Z,94526.85
2023-04-16T13:18:45.155Z,94528.23
2023-04-16T13:21:15.870Z,94533.36
2023-04-16T13:23:45.100Z,94537.14
2023-04-16T13:26:15.564Z,94538.01
2023-04-16T13:28:44.454Z,94527.22
2023-04-16T13:31:13.459Z,94529.17
2023-04-16T13:33:42.554Z,94531.10
2023-04-16T13:36:11.675Z,94525.94
2023-04-16T13:38:42.554Z,94527.81
2023-04-16T13:41:14.363Z,94533.78
2023-04-16T13:43:43.458Z,94532.86
2023-04-16T13:46:14.031Z,94537.66
2023-04-16T13:48:44.739Z,94533.84
2023-04-16T13:51:19.630Z,94530.83
2023-04-16T13:53:48.369Z,94542.80
2023-04-16T13:56:17.221Z,94543.05
2023-04-16T13:58:46.402Z,94539.52
2023-04-16T14:01:15.673Z,94538.72
2023-04-16T14:03:44.823Z,94542.92
2023-04-16T14:06:15.115Z,94551.86
2023-04-16T14:08:43.848Z,94553.73
2023-04-16T14:11:13.221Z,94566.51
2023-04-16T14:13:42.610Z,94578.64
2023-04-16T14:16:11.814Z,94590.75
2023-04-16T14:18:42.540Z,94595.28
2023-04-16T14:21:11.392Z,94601.94
2023-04-16T14:23:40.125Z,94609.07
2023-04-16T14:26:09.226Z,94605.16
2023-04-16T14:28:38.393Z,94605.81
2023-04-16T14:31:07.147Z,94595.95
2023-04-16T14:34:04.596Z,94586.99
2023-04-16T14:36:33.749Z,94583.24
2023-04-16T14:39:02.908Z,94589.84
2023-04-16T14:41:32.496Z,94599.34
2023-04-16T14:44:01.436Z,94607.13
2023-04-16T14:46:30.675Z,94601.72
2023-04-16T14:48:59.392Z,94603.73
2023-04-16T14:51:28.232Z,94609.45
2023-04-16T14:53:57.860Z,94613.75
2023-04-16T14:56:26.701Z,94608.09
2023-04-16T14:58:55.603Z,94611.59
2023-04-16T15:01:24.458Z,94614.61
2023-04-16T15:03:55.098Z,94613.52
2023-04-16T15:06:24.158Z,94621.00
2023-04-16T15:08:52.900Z,94622.04
2023-04-16T15:11:22.829Z,94616.09
2023-04-16T15:13:51.515Z,94621.13
2023-04-16T15:16:21.698Z,94625.23
2023-04-16T15:18:51.209Z,94624.28
2023-04-16T15:21:19.941Z,94630.95
2023-04-16T15:23:48.591Z,94636.30
2023-04-16T15:26:17.483Z,94637.34
2023-04-16T15:28:46.224Z,94636.83
2023-04-16T15:31:14.965Z,94634.81
2023-04-16T15:33:43.725Z,94646.34
2023-04-16T15:36:12.468Z,94646.86
2023-04-16T15:38:44.244Z,94646.70
2023-04-16T15:41:12.990Z,94650.92
2023-04-16T15:43:43.287Z,94655.40
2023-04-16T15:46:18.360Z,94655.17
2023-04-16T15:48:48.135Z,94653.72
2023-04-16T15:51:19.767Z,94654.97
2023-04-16T15:53:50.614Z,94650.13
2023-04-16T15:56:19.362Z,94651.28
2023-04-16T15:58:48.155Z,94650.60
2023-04-16T16:01:18.546Z,94659.82
2023-04-16T16:03:54.684Z,94667.98
2023-04-16T16:06:25.115Z,94670.66
2023-04-16T16:09:09.147Z,94666.89
2023-04-16T16:11:38.907Z,94626.16
2023-04-16T16:14:18.641Z,94660.96
2023-04-16T16:16:49.562Z,94664.73
2023-04-16T16:19:20.056Z,94668.20
2023-04-16T16:21:50.465Z,94665.32
2023-04-16T16:24:19.473Z,94664.48
2023-04-16T16:26:48.322Z,94661.81
2023-04-16T16:29:17.149Z,94659.34
2023-04-16T16:32:00.410Z,94656.89
2023-04-16T16:34:29.275Z,94664.05
2023-04-16T16:36:58.219Z,94669.36
2023-04-16T16:39:26.885Z,94666.28
2023-04-16T16:41:57.109Z,94669.28
2023-04-16T16:44:26.181Z,94673.28
2023-04-16T16:46:55.157Z,94676.80
2023-04-16T16:49:23.824Z,94682.47
2023-04-16T16:51:52.542Z,94683.74
2023-04-16T16:54:27.259Z,94681.97
2023-04-16T16:56:58.630Z,94678.67
2023-04-16T16:59:27.568Z,94673.91
2023-04-16T17:01:56.550Z,94686.16
2023-04-16T17:04:25.668Z,94687.89
2023-04-16T17:06:58.020Z,94679.95
2023-04-16T17:09:26.949Z,94674.84
2023-04-16T17:11:57.102Z,94681.89
2023-04-16T17:14:26.127Z,94684.95
2023-04-16T17:16:55.192Z,94687.47
2023-04-16T17:19:24.000Z,94690.54
2023-04-16T17:21:53.720Z,94690.72
2023-04-16T17:24:22.400Z,94689.77
2023-04-16T17:26:51.962Z,94690.72
2023-04-16T17:29:22.325Z,94694.17
2023-04-16T17:31:51.035Z,94694.55
2023-04-16T17:34:20.373Z,94694.55
2023-04-16T17:36:51.264Z,94696.83
2023-04-16T17:39:21.098Z,94699.89
2023-04-16T17:41:51.961Z,94700.09
2023-04-16T17:44:20.992Z,94696.47
2023-04-16T17:46:49.622Z,94698.59
2023-04-16T17:49:20.958Z,94702.41
2023-04-16T17:51:49.664Z,94706.62
2023-04-16T17:54:18.466Z,94704.73
2023-04-16T17:56:47.454Z,94701.88
2023-04-16T17:59:18.011Z,94702.83
2023-04-16T18:01:46.824Z,94700.19
2023-04-16T18:04:16.075Z,94704.00
2023-04-16T18:06:45.124Z,94700.36
2023-04-16T18:09:14.367Z,94711.23
2023-04-16T18:11:43.164Z,94704.77
2023-04-16T18:14:13.664Z,94703.41
2023-04-16T18:16:42.370Z,94706.48
2023-04-16T18:19:12.168Z,94705.13
2023-04-16T18:21:41.347Z,94705.52
2023-04-16T18:24:10.616Z,94707.02
2023-04-16T18:26:41.036Z,94701.30
2023-04-16T18:29:10.506Z,94707.77
2023-04-16T18:31:40.207Z,94706.24
2023-04-16T18:34:08.960Z,94705.63
2023-04-16T18:36:37.658Z,94710.58
2023-04-16T18:39:07.476Z,94708.82
2023-04-16T18:41:37.879Z,94705.78
2023-04-16T18:44:08.056Z,94702.80
2023-04-16T18:46:36.922Z,94701.28
2023-04-16T18:49:05.857Z,94704.13
2023-04-16T18:51:42.343Z,94702.97
2023-04-16T18:54:13.184Z,94702.98
2023-04-16T18:56:44.011Z,94704.13
2023-04-16T18:59:13.080Z,94704.90
2023-04-16T19:01:41.718Z,94708.50
2023-04-16T19:07:25.409Z,94715.58
2023-04-16T19:10:15.890Z,94709.88
2023-04-16T19:12:46.473Z,94706.63
2023-04-16T19:27:38.926Z,94692.34
2023-04-16T19:30:24.591Z,94702.61
2023-04-16T19:32:55.397Z,94698.42
2023-04-16T19:35:35.924Z,94707.75
2023-04-16T19:38:20.156Z,94708.89
2023-04-16T19:44:04.131Z,94694.75
2023-04-16T19:46:32.773Z,94694.58
2023-04-16T19:49:01.454Z,94695.73
2023-04-16T19:51:30.362Z,94690.78
2023-04-16T19:53:59.121Z,94690.59
2023-04-16T19:56:29.294Z,94704.69
2023-04-16T19:59:02.782Z,94702.73
2023-04-16T20:01:33.324Z,94696.24
2023-04-16T20:04:02.147Z,94695.48
2023-04-16T20:06:32.576Z,94698.70
2023-04-16T20:09:01.357Z,94697.77
2023-04-16T20:11:33.095Z,94694.67
2023-04-16T20:20:56.982Z,94694.31
2023-04-16T20:23:26.035Z,94696.98
2023-04-16T20:25:54.798Z,94693.37
2023-04-16T20:28:23.424Z,94696.09
2023-04-16T20:30:52.302Z,94694.34
2023-04-16T20:33:21.154Z,94698.13
2023-04-16T20:35:52.449Z,94694.70
2023-04-16T20:38:29.845Z,94697.95
2023-04-16T20:47:39.616Z,94700.36
2023-04-16T20:50:10.851Z,94701.30
2023-04-16T20:53:02.211Z,94696.31
2023-04-16T20:55:46.948Z,94698.98
2023-04-16T20:58:32.733Z,94699.27
2023-04-16T21:01:09.220Z,94702.78
2023-04-16T21:03:51.765Z,94700.28
2023-04-16T21:06:22.734Z,94694.19
2023-04-16T21:08:53.458Z,94693.60
2023-04-16T21:11:36.292Z,94687.23
2023-04-16T21:14:06.404Z,94689.37
2023-04-16T21:20:05.331Z,94682.52
2023-04-16T21:22:54.894Z,94682.87
2023-04-16T21:28:09.372Z,94681.06
2023-04-16T21:30:43.703Z,94683.95
2023-04-16T21:33:44.428Z,94684.59
2023-04-16T21:39:36.990Z,94686.16
2023-04-16T21:42:07.615Z,94681.59
2023-04-16T21:44:44.379Z,94681.99
2023-04-16T21:47:21.094Z,94681.78
2023-04-16T21:49:52.918Z,94684.27
2023-04-16T21:52:25.876Z,94686.73
2023-04-16T21:54:54.771Z,94684.84
2023-04-16T21:57:26.000Z,94683.72
2023-04-16T21:59:54.927Z,94679.89
2023-04-16T22:02:24.085Z,94682.38
2023-04-16T22:04:53.194Z,94684.86
2023-04-16T22:07:22.091Z,94679.13
2023-04-16T22:09:53.388Z,94676.45
2023-04-16T22:12:22.532Z,94675.10
2023-04-16T22:15:02.794Z,94676.97
2023-04-16T22:17:40.627Z,94677.73
2023-04-16T22:20:11.805Z,94672.93
2023-04-16T22:22:41.972Z,94671.63
2023-04-16T22:25:12.073Z,94673.33
2023-04-16T22:27:42.396Z,94665.91
2023-04-16T22:30:11.826Z,94665.16
2023-04-16T22:32:40.713Z,94661.30
2023-04-16T22:35:10.244Z,94665.89
2023-04-16T22:37:39.289Z,94660.36
2023-04-16T22:40:10.526Z,94656.59
2023-04-16T22:42:48.680Z,94656.54
2023-04-16T22:45:17.854Z,94662.45
2023-04-16T22:47:52.399Z,94661.70
2023-04-16T22:50:27.008Z,94660.36
2023-04-16T22:53:10.636Z,94649.70
2023-04-16T22:55:34.182Z,94652.81
2023-04-16T22:58:03.187Z,94651.30
2023-04-16T23:00:33.805Z,94646.95
2023-04-16T23:03:04.428Z,94648.05
2023-04-16T23:05:33.868Z,94642.16
2023-04-16T23:08:02.703Z,94644.39
2023-04-16T23:10:31.450Z,94644.94
2023-04-16T23:13:00.170Z,94642.69
2023-04-16T23:15:30.750Z,94642.84
2023-04-16T23:18:04.399Z,94640.95
2023-04-16T23:20:36.158Z,94639.78
2023-04-16T23:23:04.963Z,94637.89
2023-04-16T23:25:33.853Z,94632.95
2023-04-16T23:28:02.662Z,94634.33
2023-04-16T23:30:31.403Z,94636.03
2023-04-16T23:33:00.144Z,94635.64
2023-04-16T23:35:28.907Z,94635.64
2023-04-16T23:37:57.839Z,94632.39
2023-04-16T23:40:26.740Z,94625.11
2023-04-16T23:42:55.461Z,94628.75
2023-04-16T23:45:24.530Z,94630.67
2023-04-16T23:47:53.540Z,94626.66
2023-04-16T23:50:22.482Z,94622.81
2023-04-16T23:52:51.242Z,94617.67
2023-04-16T23:55:23.424Z,94616.12
2023-04-16T23:57:52.436Z,94614.28
